createdAt,value
2022-08-03T00:01:52.633Z,20.77
2022-08-03T00:04:19.795Z,20.71
2022-08-03T00:06:46.861Z,20.70
2022-08-03T00:09:13.988Z,20.66
2022-08-03T00:11:41.056Z,20.62
2022-08-03T00:14:09.808Z,20.57
2022-08-03T00:16:37.196Z,20.52
2022-08-03T00:19:04.798Z,20.43
2022-08-03T00:21:31.957Z,20.40
2022-08-03T00:23:58.980Z,20.33
2022-08-03T00:26:26.256Z,20.28
2022-08-03T00:28:53.652Z,20.26
2022-08-03T00:31:29.674Z,20.24
2022-08-03T00:34:11.280Z,20.16
2022-08-03T00:36:40.043Z,20.17
2022-08-03T00:39:06.993Z,20.14
2022-08-03T00:41:33.984Z,20.07
2022-08-03T00:44:01.149Z,20.06
2022-08-03T00:46:28.252Z,20.06
2022-08-03T00:48:55.298Z,20.02
2022-08-03T00:51:23.313Z,19.98
2022-08-03T00:53:51.252Z,19.98
2022-08-03T00:56:18.659Z,19.96
2022-08-03T00:58:47.358Z,19.96
2022-08-03T01:01:15.663Z,19.96
2022-08-03T01:03:42.801Z,19.98
2022-08-03T01:06:27.179Z,19.96
2022-08-03T01:09:12.680Z,19.97
2022-08-03T01:12:04.160Z,19.96
2022-08-03T01:14:41.813Z,19.97
2022-08-03T01:17:57.442Z,19.91
2022-08-03T01:20:27.755Z,19.89
2022-08-03T01:23:16.319Z,19.88
2022-08-03T01:26:36.862Z,19.84
2022-08-03T01:29:39.677Z,19.84
2022-08-03T01:32:58.041Z,19.84
2022-08-03T01:35:12.589Z,19.87
2022-08-03T01:37:52.309Z,19.86
2022-08-03T01:40:22.373Z,19.88
2022-08-03T01:42:52.184Z,19.88
2022-08-03T01:45:20.949Z,19.89
2022-08-03T01:47:49.937Z,19.90
2022-08-03T01:50:21.567Z,19.90
2022-08-03T01:52:50.180Z,19.86
2022-08-03T01:55:19.566Z,19.85
2022-08-03T01:58:05.819Z,19.83
2022-08-03T02:00:37.685Z,19.78
2022-08-03T02:03:09.937Z,19.77
2022-08-03T02:05:40.085Z,19.77
2022-08-03T02:08:13.853Z,19.74
2022-08-03T02:10:43.690Z,19.73
2022-08-03T02:13:11.343Z,19.72
2022-08-03T02:15:39.487Z,19.66
2022-08-03T02:18:10.676Z,19.65
2022-08-03T02:20:40.289Z,19.63
2022-08-03T02:23:07.884Z,19.61
2022-08-03T02:25:52.395Z,19.58
2022-08-03T02:28:22.941Z,19.53
2022-08-03T02:30:56.051Z,19.56
2022-08-03T02:33:31.999Z,19.56
2022-08-03T02:36:01.612Z,19.52
2022-08-03T02:38:36.561Z,19.58
2022-08-03T02:41:09.684Z,19.58
2022-08-03T02:43:56.777Z,19.59
2022-08-03T02:46:34.105Z,19.59
2022-08-03T02:49:41.359Z,19.58
2022-08-03T02:51:55.247Z,19.56
2022-08-03T02:54:25.165Z,19.54
2022-08-03T02:56:55.372Z,19.57
2022-08-03T02:59:23.599Z,19.54
2022-08-03T03:01:51.737Z,19.51
2022-08-03T03:04:19.296Z,19.47
2022-08-03T03:06:49.096Z,19.43
2022-08-03T03:09:17.603Z,19.40
2022-08-03T03:11:45.264Z,19.36
2022-08-03T03:14:13.568Z,19.33
2022-08-03T03:16:42.438Z,19.30
2022-08-03T03:19:13.392Z,19.29
2022-08-03T03:21:41.084Z,19.28
2022-08-03T03:24:10.430Z,19.29
2022-08-03T03:26:42.493Z,19.30
2022-08-03T03:29:10.090Z,19.29
2022-08-03T03:31:37.467Z,19.29
2022-08-03T03:34:05.185Z,19.31
2022-08-03T03:36:33.872Z,19.32
2022-08-03T03:39:15.941Z,19.32
2022-08-03T03:41:44.085Z,19.31
2022-08-03T03:44:11.152Z,19.31
2022-08-03T03:46:39.781Z,19.31
2022-08-03T03:49:07.676Z,19.30
2022-08-03T03:51:35.224Z,19.30
2022-08-03T03:54:07.114Z,19.28
2022-08-03T03:56:34.376Z,19.29
2022-08-03T03:59:01.526Z,19.26
2022-08-03T04:01:29.464Z,19.26
2022-08-03T04:03:56.563Z,19.26
2022-08-03T04:06:44.164Z,19.28
2022-08-03T04:09:30.075Z,19.27
2022-08-03T04:12:02.049Z,19.28
2022-08-03T04:14:34.075Z,19.29
2022-08-03T04:17:07.740Z,19.30
2022-08-03T04:19:40.882Z,19.33
2022-08-03T04:22:13.065Z,19.36
2022-08-03T04:24:47.132Z,19.40
2022-08-03T04:27:18.460Z,19.46
2022-08-03T04:29:49.689Z,19.51
2022-08-03T04:32:18.195Z,19.56
2022-08-03T04:34:45.889Z,19.61
2022-08-03T04:37:27.013Z,19.68
2022-08-03T04:39:58.923Z,19.73
2022-08-03T04:42:27.567Z,19.74
2022-08-03T04:45:00.783Z,19.87
2022-08-03T04:47:31.493Z,19.93
2022-08-03T04:50:00.569Z,20.00
2022-08-03T04:52:27.648Z,20.08
2022-08-03T04:54:54.601Z,20.14
2022-08-03T04:57:22.822Z,20.20
2022-08-03T05:00:01.255Z,20.27
2022-08-03T05:02:31.376Z,20.34
2022-08-03T05:04:59.193Z,20.43
2022-08-03T05:07:26.583Z,20.50
2022-08-03T05:10:16.517Z,20.58
2022-08-03T05:12:48.116Z,20.65
2022-08-03T05:15:16.033Z,20.74
2022-08-03T05:17:44.376Z,20.80
2022-08-03T05:20:12.860Z,20.90
2022-08-03T05:22:40.022Z,20.97
2022-08-03T05:25:07.843Z,21.05
2022-08-03T05:27:35.132Z,21.12
2022-08-03T05:30:29.652Z,21.22
2022-08-03T05:32:49.229Z,21.29
2022-08-03T05:36:01.565Z,21.35
2022-08-03T05:38:05.156Z,21.46
2022-08-03T05:40:32.992Z,21.53
2022-08-03T05:43:00.725Z,21.60
2022-08-03T05:45:28.806Z,21.63
2022-08-03T05:47:56.049Z,21.77
2022-08-03T05:50:24.117Z,21.83
2022-08-03T05:52:51.433Z,21.89
2022-08-03T05:55:19.135Z,21.97
2022-08-03T05:57:47.538Z,22.07
2022-08-03T06:00:16.984Z,22.14
2022-08-03T06:02:45.196Z,22.24
2022-08-03T06:05:12.240Z,22.31
2022-08-03T06:07:39.731Z,22.39
2022-08-03T06:10:36.528Z,22.48
2022-08-03T06:12:56.292Z,22.57
2022-08-03T06:15:23.497Z,22.65
2022-08-03T06:17:52.127Z,22.78
2022-08-03T06:20:21.066Z,22.88
2022-08-03T06:22:50.786Z,22.98
2022-08-03T06:25:21.292Z,23.03
2022-08-03T06:27:48.931Z,23.19
2022-08-03T06:30:21.121Z,23.28
2022-08-03T06:32:51.686Z,23.38
2022-08-03T06:35:20.378Z,23.48
2022-08-03T06:37:51.586Z,23.56
2022-08-03T06:40:29.120Z,23.67
2022-08-03T06:43:00.953Z,23.79
2022-08-03T06:45:31.815Z,23.88
2022-08-03T06:48:11.601Z,23.98
2022-08-03T06:50:41.739Z,24.11
2022-08-03T06:53:18.145Z,24.22
2022-08-03T06:55:51.147Z,24.33
2022-08-03T06:58:21.227Z,24.45
2022-08-03T07:00:48.417Z,24.54
2022-08-03T07:03:15.609Z,24.66
2022-08-03T07:05:48.082Z,24.76
2022-08-03T07:08:15.698Z,24.87
2022-08-03T07:10:43.505Z,24.96
2022-08-03T07:13:11.378Z,25.08
2022-08-03T07:15:55.654Z,25.15
2022-08-03T07:18:29.236Z,25.24
2022-08-03T07:20:58.354Z,25.31
2022-08-03T07:23:25.928Z,25.42
2022-08-03T07:25:53.111Z,25.49
2022-08-03T07:28:20.729Z,25.57
2022-08-03T07:30:48.097Z,25.63
2022-08-03T07:33:15.737Z,25.73
2022-08-03T07:35:42.851Z,25.81
2022-08-03T07:38:12.611Z,25.89
2022-08-03T07:40:44.435Z,25.98
2022-08-03T07:43:13.486Z,26.05
2022-08-03T07:45:40.458Z,26.14
2022-08-03T07:48:11.935Z,26.21
2022-08-03T07:50:39.649Z,26.29
2022-08-03T07:53:06.773Z,26.36
2022-08-03T07:55:35.229Z,26.45
2022-08-03T07:58:09.942Z,26.54
2022-08-03T08:00:37.569Z,26.62
2022-08-03T08:03:05.703Z,26.69
2022-08-03T08:05:33.882Z,26.78
2022-08-03T08:08:05.020Z,26.85
2022-08-03T08:10:32.884Z,26.91
2022-08-03T08:13:00.393Z,26.99
2022-08-03T08:15:28.091Z,27.05
2022-08-03T08:17:59.646Z,27.12
2022-08-03T08:20:37.921Z,27.20
2022-08-03T08:23:37.663Z,27.27
2022-08-03T08:25:56.150Z,27.34
2022-08-03T08:28:32.585Z,27.41
2022-08-03T08:31:02.120Z,27.48
2022-08-03T08:33:47.862Z,27.53
2022-08-03T08:36:16.988Z,27.60
2022-08-03T08:38:45.306Z,27.68
2022-08-03T08:41:14.679Z,27.74
2022-08-03T08:43:42.256Z,27.81
2022-08-03T08:46:23.589Z,27.89
2022-08-03T08:48:53.604Z,27.96
2022-08-03T08:51:22.569Z,28.04
2022-08-03T08:53:54.106Z,28.09
2022-08-03T08:56:26.034Z,28.17
2022-08-03T08:59:01.437Z,28.22
2022-08-03T09:01:30.724Z,28.26
2022-08-03T09:03:57.837Z,28.34
2022-08-03T09:06:25.169Z,28.39
2022-08-03T09:08:52.527Z,28.47
2022-08-03T09:12:00.918Z,28.54
2022-08-03T09:14:36.599Z,28.58
2022-08-03T09:17:04.551Z,28.68
2022-08-03T09:19:33.535Z,28.76
2022-08-03T09:22:18.631Z,28.82
2022-08-03T09:25:27.195Z,28.87
2022-08-03T09:27:54.509Z,28.96
2022-08-03T09:30:34.487Z,29.02
2022-08-03T09:33:08.740Z,29.10
2022-08-03T09:35:54.154Z,29.18
2022-08-03T09:38:27.449Z,29.21
2022-08-03T09:41:00.033Z,29.28
2022-08-03T09:43:28.485Z,29.33
2022-08-03T09:46:05.865Z,29.34
2022-08-03T09:48:37.271Z,29.40
2022-08-03T09:51:14.041Z,29.46
2022-08-03T09:53:59.702Z,29.48
2022-08-03T09:56:47.524Z,29.53
2022-08-03T09:59:28.289Z,29.58
2022-08-03T10:01:57.660Z,29.62
2022-08-03T10:04:25.556Z,29.66
2022-08-03T10:07:11.186Z,29.72
2022-08-03T10:09:38.687Z,29.80
2022-08-03T10:12:14.099Z,29.87
2022-08-03T10:14:45.548Z,29.94
2022-08-03T10:17:13.047Z,29.98
2022-08-03T10:19:41.553Z,30.06
2022-08-03T10:22:12.735Z,30.10
2022-08-03T10:24:54.693Z,30.15
2022-08-03T10:27:24.560Z,30.18
2022-08-03T10:29:55.809Z,30.22
2022-08-03T10:32:41.906Z,30.22
2022-08-03T10:35:21.549Z,30.29
2022-08-03T10:38:08.734Z,30.31
2022-08-03T10:40:48.539Z,30.38
2022-08-03T10:43:29.073Z,30.44
2022-08-03T10:45:58.105Z,30.49
2022-08-03T10:48:26.308Z,30.55
2022-08-03T10:50:54.073Z,30.60
2022-08-03T10:53:55.059Z,30.64
2022-08-03T10:56:53.556Z,30.72
2022-08-03T10:59:47.158Z,30.76
2022-08-03T11:02:15.700Z,30.81
2022-08-03T11:04:45.401Z,30.85
2022-08-03T11:07:25.537Z,30.89
2022-08-03T11:09:56.605Z,30.94
2022-08-03T11:12:32.269Z,30.98
2022-08-03T11:15:07.517Z,31.03
2022-08-03T11:17:45.712Z,31.08
2022-08-03T11:20:14.142Z,31.19
2022-08-03T11:22:54.137Z,31.28
2022-08-03T11:25:53.630Z,31.35
2022-08-03T11:28:28.553Z,31.43
2022-08-03T11:30:56.070Z,31.51
2022-08-03T11:33:30.703Z,31.57
2022-08-03T11:36:02.703Z,31.62
2022-08-03T11:38:30.020Z,31.61
2022-08-03T11:40:57.405Z,31.61
2022-08-03T11:43:31.559Z,31.63
2022-08-03T11:46:28.233Z,31.66
2022-08-03T11:49:10.315Z,31.67
2022-08-03T11:51:39.996Z,31.69
2022-08-03T11:54:07.363Z,31.74
2022-08-03T11:56:49.615Z,31.78
2022-08-03T11:59:22.120Z,31.81
2022-08-03T12:01:50.790Z,31.86
2022-08-03T12:04:17.908Z,31.86
2022-08-03T12:07:01.818Z,31.89
2022-08-03T12:09:28.992Z,31.91
2022-08-03T12:12:00.280Z,31.88
2022-08-03T12:14:49.910Z,31.92
2022-08-03T12:17:17.392Z,31.96
2022-08-03T12:19:45.435Z,32.02
2022-08-03T12:22:13.606Z,32.15
2022-08-03T12:24:42.757Z,32.32
2022-08-03T12:27:10.025Z,32.53
2022-08-03T12:29:37.314Z,32.76
2022-08-03T12:32:04.786Z,33.10
2022-08-03T12:34:48.913Z,33.54
2022-08-03T12:37:23.810Z,34.02
2022-08-03T12:40:01.328Z,34.57
2022-08-03T12:42:35.515Z,35.19
2022-08-03T12:45:25.592Z,35.89
2022-08-03T12:47:59.050Z,36.58
2022-08-03T12:50:31.936Z,37.26
2022-08-03T12:53:08.022Z,37.91
2022-08-03T12:55:40.206Z,38.50
2022-08-03T12:58:35.410Z,39.20
2022-08-03T13:01:09.975Z,39.82
2022-08-03T13:03:50.131Z,40.42
2022-08-03T13:06:25.401Z,40.87
2022-08-03T13:09:07.414Z,41.28
2022-08-03T13:11:55.848Z,41.65
2022-08-03T13:14:23.800Z,42.05
2022-08-03T13:16:51.509Z,42.36
2022-08-03T13:19:19.074Z,42.67
2022-08-03T13:22:01.333Z,43.06
2022-08-03T13:24:32.960Z,43.61
2022-08-03T13:27:02.806Z,44.08
2022-08-03T13:29:49.662Z,44.56
2022-08-03T13:32:16.946Z,44.95
2022-08-03T13:34:44.573Z,45.26
2022-08-03T13:37:12.202Z,45.60
2022-08-03T13:39:57.226Z,45.84
2022-08-03T13:42:26.348Z,46.13
2022-08-03T13:44:53.327Z,46.38
2022-08-03T13:47:20.998Z,46.57
2022-08-03T13:50:00.269Z,46.80
2022-08-03T13:52:34.633Z,47.04
2022-08-03T13:55:04.357Z,47.24
2022-08-03T13:58:02.453Z,47.48
2022-08-03T14:00:28.072Z,47.73
2022-08-03T14:03:09.216Z,47.90
2022-08-03T14:05:41.197Z,48.01
2022-08-03T14:08:08.735Z,48.21
2022-08-03T14:10:42.584Z,48.39
2022-08-03T14:13:12.976Z,48.59
2022-08-03T14:15:50.183Z,48.81
2022-08-03T14:18:29.048Z,48.97
2022-08-03T14:21:07.010Z,49.07
2022-08-03T14:23:37.400Z,49.21
2022-08-03T14:26:10.146Z,49.38
2022-08-03T14:28:37.381Z,49.51
2022-08-03T14:31:08.163Z,49.62
2022-08-03T14:33:43.367Z,49.80
2022-08-03T14:36:10.324Z,49.97
2022-08-03T14:38:37.313Z,50.16
2022-08-03T14:41:04.689Z,50.29
2022-08-03T14:43:33.869Z,50.28
2022-08-03T14:46:02.653Z,50.22
2022-08-03T14:50:30.416Z,50.25
2022-08-03T14:51:16.826Z,50.19
2022-08-03T14:53:43.841Z,50.22
2022-08-03T14:56:11.088Z,50.26
2022-08-03T14:58:39.109Z,50.30
2022-08-03T15:02:02.107Z,50.35
2022-08-03T15:03:54.907Z,50.32
2022-08-03T15:06:21.842Z,50.27
2022-08-03T15:09:13.629Z,50.16
2022-08-03T15:11:37.112Z,50.13
2022-08-03T15:14:09.024Z,50.22
2022-08-03T15:16:38.061Z,50.32
2022-08-03T15:19:59.448Z,50.44
2022-08-03T15:21:53.340Z,50.55
2022-08-03T15:24:20.832Z,50.70
2022-08-03T15:26:47.859Z,50.83
2022-08-03T15:30:06.700Z,50.88
2022-08-03T15:32:06.079Z,50.90
2022-08-03T15:34:35.882Z,50.89
2022-08-03T15:37:03.059Z,50.84
2022-08-03T15:40:00.118Z,50.75
2022-08-03T15:42:31.121Z,50.70
2022-08-03T15:44:58.493Z,50.67
2022-08-03T15:47:25.681Z,50.64
2022-08-03T15:49:53.545Z,50.60
2022-08-03T15:52:20.642Z,50.55
2022-08-03T15:54:47.676Z,50.53
2022-08-03T15:57:17.232Z,50.49
2022-08-03T15:59:44.311Z,50.40
2022-08-03T16:02:11.398Z,50.27
2022-08-03T16:04:38.387Z,50.18
2022-08-03T16:07:05.658Z,50.08
2022-08-03T16:09:42.127Z,50.06
2022-08-03T16:12:16.211Z,50.06
2022-08-03T16:14:52.820Z,50.08
2022-08-03T16:17:21.688Z,50.06
2022-08-03T16:19:49.098Z,50.03
2022-08-03T16:22:19.470Z,49.94
2022-08-03T16:24:47.154Z,49.78
2022-08-03T16:27:17.641Z,49.61
2022-08-03T16:30:01.888Z,49.42
2022-08-03T16:32:29.171Z,49.23
2022-08-03T16:34:56.152Z,49.03
2022-08-03T16:37:38.277Z,48.87
2022-08-03T16:40:18.925Z,48.70
2022-08-03T16:42:47.963Z,48.50
2022-08-03T16:45:15.052Z,48.36
2022-08-03T16:47:42.302Z,48.30
2022-08-03T16:50:15.777Z,48.29
2022-08-03T16:52:47.020Z,48.20
2022-08-03T16:55:18.358Z,48.08
2022-08-03T16:58:03.874Z,48.00
2022-08-03T17:00:45.529Z,47.92
2022-08-03T17:03:19.135Z,47.69
2022-08-03T17:05:52.242Z,47.39
2022-08-03T17:08:26.635Z,47.21
2022-08-03T17:10:55.791Z,47.02
2022-08-03T17:13:39.510Z,46.89
2022-08-03T17:16:15.295Z,46.78
2022-08-03T17:18:58.238Z,46.70
2022-08-03T17:21:39.127Z,46.57
2022-08-03T17:24:19.646Z,46.39
2022-08-03T17:26:51.084Z,46.19
2022-08-03T17:29:23.063Z,46.00
2022-08-03T17:31:54.745Z,45.84
2022-08-03T17:34:26.246Z,45.66
2022-08-03T17:37:22.095Z,45.43
2022-08-03T17:39:59.825Z,45.09
2022-08-03T17:42:32.084Z,44.74
2022-08-03T17:45:03.999Z,44.28
2022-08-03T17:47:41.813Z,43.68
2022-08-03T17:50:23.359Z,43.01
2022-08-03T17:53:07.482Z,42.30
2022-08-03T17:55:56.942Z,41.60
2022-08-03T17:58:55.111Z,40.72
2022-08-03T18:01:59.249Z,39.96
2022-08-03T18:04:42.169Z,39.07
2022-08-03T18:07:12.710Z,38.39
2022-08-03T18:10:04.944Z,37.71
2022-08-03T18:12:53.216Z,36.98
2022-08-03T18:15:47.508Z,36.31
2022-08-03T18:18:17.522Z,35.81
2022-08-03T18:21:06.706Z,35.24
2022-08-03T18:23:38.876Z,34.76
2022-08-03T18:26:12.026Z,34.31
2022-08-03T18:28:39.903Z,33.86
2022-08-03T18:31:12.862Z,33.44
2022-08-03T18:34:16.800Z,32.94
2022-08-03T18:36:50.481Z,32.44
2022-08-03T18:39:19.842Z,32.03
2022-08-03T18:41:47.036Z,31.66
2022-08-03T18:44:53.105Z,31.32
2022-08-03T18:47:51.530Z,30.88
2022-08-03T18:50:50.139Z,30.47
2022-08-03T18:54:02.143Z,30.25
2022-08-03T18:56:52.088Z,29.96
2022-08-03T18:59:49.977Z,29.80
2022-08-03T19:02:30.405Z,29.56
2022-08-03T19:05:07.966Z,29.36
2022-08-03T19:07:37.728Z,29.23
2022-08-03T19:10:10.356Z,29.10
2022-08-03T19:12:46.391Z,28.95
2022-08-03T19:15:15.599Z,28.82
2022-08-03T19:17:50.242Z,28.69
2022-08-03T19:20:30.771Z,28.53
2022-08-03T19:22:59.976Z,28.42
2022-08-03T19:25:35.433Z,28.29
2022-08-03T19:28:06.004Z,28.16
2022-08-03T19:30:40.258Z,28.03
2022-08-03T19:33:10.327Z,27.90
2022-08-03T19:35:54.678Z,27.79
2022-08-03T19:38:28.427Z,27.70
2022-08-03T19:41:17.943Z,27.59
2022-08-03T19:47:06.016Z,27.37
2022-08-03T19:50:02.797Z,27.29
2022-08-03T19:52:31.327Z,27.18
2022-08-03T19:55:00.518Z,27.09
2022-08-03T19:57:29.848Z,26.99
2022-08-03T19:59:58.200Z,26.90
2022-08-03T20:02:27.804Z,26.83
2022-08-03T20:04:59.639Z,26.74
2022-08-03T20:07:32.304Z,26.69
2022-08-03T20:10:02.128Z,26.61
2022-08-03T20:12:33.170Z,26.54
2022-08-03T20:15:05.609Z,26.43
2022-08-03T20:17:56.642Z,26.35
2022-08-03T20:20:25.784Z,26.28
2022-08-03T20:22:57.462Z,26.18
2022-08-03T20:25:37.605Z,26.14
2022-08-03T20:28:15.397Z,26.08
2022-08-03T20:30:46.361Z,26.01
2022-08-03T20:33:18.314Z,25.99
2022-08-03T20:35:48.911Z,25.93
2022-08-03T20:38:18.424Z,25.88
2022-08-03T20:40:49.942Z,25.79
2022-08-03T20:43:19.998Z,25.78
2022-08-03T20:45:59.188Z,25.72
2022-08-03T20:48:37.309Z,25.64
2022-08-03T20:51:19.310Z,25.61
2022-08-03T20:54:00.219Z,25.55
2022-08-03T20:56:34.086Z,25.51
2022-08-03T20:59:07.143Z,25.45
2022-08-03T21:01:42.148Z,25.38
2022-08-03T21:04:11.701Z,25.33
2022-08-03T21:06:53.437Z,25.28
2022-08-03T21:09:33.445Z,25.23
2022-08-03T21:12:15.461Z,25.16
2022-08-03T21:13:02.804Z,27.51
2022-08-03T21:15:04.623Z,25.06
2022-08-03T21:17:43.492Z,25.00
2022-08-03T21:20:13.170Z,24.97
2022-08-03T21:22:46.624Z,24.90
2022-08-03T21:25:16.568Z,24.84
2022-08-03T21:27:44.199Z,24.75
2022-08-03T21:30:12.380Z,24.68
2022-08-03T21:32:43.240Z,24.65
2022-08-03T21:35:11.963Z,24.55
2022-08-03T21:37:41.579Z,24.47
2022-08-03T21:40:12.304Z,24.40
2022-08-03T21:42:45.425Z,24.34
2022-08-03T21:45:17.326Z,24.29
2022-08-03T21:47:45.812Z,24.24
2022-08-03T21:50:14.123Z,24.21
2022-08-03T21:52:49.267Z,24.17
2022-08-03T21:55:18.422Z,24.16
2022-08-03T21:57:53.786Z,24.13
2022-08-03T22:00:23.204Z,24.14
2022-08-03T22:02:58.127Z,24.09
2022-08-03T22:05:42.935Z,24.11
2022-08-03T22:08:13.852Z,24.09
2022-08-03T22:10:44.333Z,24.07
2022-08-03T22:13:20.625Z,24.07
2022-08-03T22:16:04.355Z,24.05
2022-08-03T22:18:31.649Z,24.04
2022-08-03T22:20:59.938Z,24.01
2022-08-03T22:23:28.159Z,24.01
2022-08-03T22:25:58.255Z,23.98
2022-08-03T22:28:30.536Z,23.96
2022-08-03T22:30:59.323Z,23.93
2022-08-03T22:33:48.953Z,23.90
2022-08-03T22:36:21.465Z,23.86
2022-08-03T22:38:51.939Z,23.83
2022-08-03T22:41:20.257Z,23.78
2022-08-03T22:43:47.705Z,23.75
2022-08-03T22:46:18.695Z,23.76
2022-08-03T22:48:48.545Z,23.73
2022-08-03T22:51:16.476Z,23.71
2022-08-03T22:53:46.169Z,23.67
2022-08-03T22:56:13.945Z,23.61
2022-08-03T22:58:41.349Z,23.53
2022-08-03T23:01:11.996Z,23.47
2022-08-03T23:03:58.617Z,23.39
2022-08-03T23:06:35.697Z,23.27
2022-08-03T23:09:14.228Z,23.21
2022-08-03T23:11:45.900Z,23.14
2022-08-03T23:14:17.186Z,23.10
2022-08-03T23:16:46.760Z,23.03
2022-08-03T23:19:17.006Z,22.98
2022-08-03T23:22:00.132Z,22.95
2022-08-03T23:24:30.440Z,22.91
2022-08-03T23:26:59.228Z,22.89
2022-08-03T23:29:29.597Z,22.86
2022-08-03T23:31:58.029Z,22.84
2022-08-03T23:34:44.746Z,22.77
2022-08-03T23:37:17.771Z,22.78
2022-08-03T23:39:49.097Z,22.78
2022-08-03T23:42:20.182Z,22.77
2022-08-03T23:44:54.496Z,22.76
2022-08-03T23:47:22.199Z,22.77
2022-08-03T23:49:50.361Z,22.76
2022-08-03T23:52:33.683Z,22.76
2022-08-03T23:55:06.846Z,22.75
2022-08-03T23:57:49.131Z,22.73
